Time,TemperatureF,DewpointF,PressureIn,WindDirection,WindDirectionDegrees,WindSpeedMPH,WindSpeedGustMPH,Humidity,HourlyPrecipIn,Conditions,Clouds,dailyrainin,SolarRadiationWatts/m^2,SoftwareType,DateUTC
2013-10-22 00:02:00,40.0,28.0,-100.00,SW,219,6.0,6.0,61,0.00,,,0.00,0.000000,,2013-10-22 06:02:00,
2013-10-22 00:43:00,41.0,29.0,-100.00,SW,225,5.0,10.0,62,0.00,,,0.00,0.000000,,2013-10-22 06:43:00,
2013-10-22 00:53:00,41.0,29.0,-100.00,SW,225,5.0,10.0,62,0.00,,,0.00,0.000000,,2013-10-22 06:53:00,
2013-10-22 01:02:00,41.0,29.0,-100.00,SW,225,5.0,10.0,62,0.00,,,0.00,0.000000,,2013-10-22 07:02:00,
2013-10-22 01:42:00,40.0,28.0,-100.00,SW,215,8.0,10.0,62,0.00,,,0.00,0.000000,,2013-10-22 07:42:00,
2013-10-22 01:52:00,40.0,28.0,-100.00,SW,215,8.0,10.0,62,0.00,,,0.00,0.000000,,2013-10-22 07:52:00,
2013-10-22 02:01:00,40.0,28.0,-100.00,SW,215,8.0,10.0,62,0.00,,,0.00,0.000000,,2013-10-22 08:01:00,
2013-10-22 02:22:00,39.0,28.0,-100.00,SW,229,0.0,10.0,64,0.00,,,-99.99,0.000000,,2013-10-22 08:22:00,
2013-10-22 02:32:00,39.0,28.0,-100.00,SW,229,0.0,10.0,64,0.00,,,-99.99,0.000000,,2013-10-22 08:32:00,
2013-10-22 02:42:00,39.0,28.0,-100.00,SW,229,0.0,10.0,64,0.00,,,-99.99,0.000000,,2013-10-22 08:42:00,
2013-10-22 02:52:00,39.0,28.0,-100.00,SW,229,0.0,10.0,64,0.00,,,-99.99,0.000000,,2013-10-22 08:52:00,
2013-10-22 03:01:00,39.0,28.0,-100.00,SW,229,0.0,10.0,64,0.00,,,-99.99,0.000000,,2013-10-22 09:01:00,
2013-10-22 03:03:00,39.0,28.0,-100.00,WSW,257,0.0,8.0,65,0.00,,,0.00,0.000000,,2013-10-22 09:03:00,
2013-10-22 03:43:00,39.0,28.0,-100.00,WSW,257,0.0,8.0,65,0.00,,,0.00,0.000000,,2013-10-22 09:43:00,
2013-10-22 03:53:00,39.0,28.0,-100.00,WSW,257,0.0,8.0,65,0.00,,,0.00,0.000000,,2013-10-22 09:53:00,
2013-10-22 04:03:00,38.0,28.0,-100.00,West,263,0.0,6.0,67,0.00,,,0.00,0.000000,,2013-10-22 10:03:00,
2013-10-22 04:43:00,38.0,28.0,-100.00,West,263,0.0,6.0,67,0.00,,,0.00,0.000000,,2013-10-22 10:43:00,
2013-10-22 04:53:00,38.0,28.0,-100.00,West,263,0.0,6.0,67,0.00,,,0.00,0.000000,,2013-10-22 10:53:00,
2013-10-22 05:42:00,36.0,27.0,-100.00,West,264,2.0,5.0,69,0.00,,,0.00,0.000000,,2013-10-22 11:42:00,
2013-10-22 05:52:00,36.0,27.0,-100.00,West,264,2.0,5.0,69,0.00,,,0.00,0.000000,,2013-10-22 11:52:00,
2013-10-22 06:01:00,36.0,27.0,-100.00,West,264,2.0,5.0,69,0.00,,,0.00,0.000000,,2013-10-22 12:01:00,
2013-10-22 06:42:00,36.0,28.0,-100.00,SW,230,3.0,6.0,73,0.00,,,-99.99,0.000000,,2013-10-22 12:42:00,
2013-10-22 06:52:00,36.0,28.0,-100.00,SW,230,3.0,6.0,73,0.00,,,-99.99,0.000000,,2013-10-22 12:52:00,
2013-10-22 07:01:00,36.0,28.0,-100.00,SW,230,3.0,6.0,73,0.00,,,-99.99,0.000000,,2013-10-22 13:01:00,
2013-10-22 07:42:00,36.0,28.0,-100.00,WSW,238,3.0,8.0,73,0.00,,,-99.99,0.000000,,2013-10-22 13:42:00,
2013-10-22 07:53:00,36.0,28.0,-100.00,WSW,238,3.0,8.0,73,0.00,,,-99.99,0.000000,,2013-10-22 13:53:00,
2013-10-22 08:02:00,36.0,28.0,-100.00,WSW,238,3.0,8.0,73,0.00,,,-99.99,0.000000,,2013-10-22 14:02:00,
2013-10-22 08:42:00,35.0,28.0,-100.00,SW,224,0.0,7.0,75,0.00,,,0.00,1.000000,,2013-10-22 14:42:00,
2013-10-22 08:52:00,35.0,28.0,-100.00,SW,224,0.0,7.0,75,0.00,,,0.00,1.000000,,2013-10-22 14:52:00,
2013-10-22 09:01:00,35.0,28.0,-100.00,SW,224,0.0,7.0,75,0.00,,,0.00,1.000000,,2013-10-22 15:01:00,
2013-10-22 09:03:00,40.0,29.0,-100.00,SE,138,0.0,6.0,65,0.00,,,0.00,71.000000,,2013-10-22 15:03:00,
2013-10-22 09:54:00,40.0,29.0,-100.00,SE,138,0.0,6.0,65,0.00,,,0.00,71.000000,,2013-10-22 15:54:00,
2013-10-22 11:22:00,50.0,31.0,-100.00,NE,55,1.0,5.0,47,-99.99,,,-99.99,432.000000,,2013-10-22 17:22:00,
2013-10-22 11:34:00,50.0,31.0,-100.00,NE,55,1.0,5.0,47,-99.99,,,-99.99,432.000000,,2013-10-22 17:34:00,
2013-10-22 11:43:00,50.0,31.0,-100.00,NE,55,1.0,5.0,47,-99.99,,,-99.99,432.000000,,2013-10-22 17:43:00,
2013-10-22 11:52:00,50.0,31.0,-100.00,NE,55,1.0,5.0,47,-99.99,,,-99.99,432.000000,,2013-10-22 17:52:00,
2013-10-22 12:02:00,50.0,31.0,-100.00,NE,55,1.0,5.0,47,-99.99,,,-99.99,432.000000,,2013-10-22 18:02:00,
2013-10-22 12:42:00,54.0,31.0,-100.00,SSE,148,0.0,6.0,42,0.00,,,0.00,565.000000,,2013-10-22 18:42:00,
2013-10-22 12:52:00,54.0,31.0,-100.00,SSE,148,0.0,6.0,42,0.00,,,0.00,565.000000,,2013-10-22 18:52:00,
2013-10-22 13:01:00,54.0,31.0,-100.00,SSE,148,0.0,6.0,42,0.00,,,0.00,565.000000,,2013-10-22 19:01:00,
2013-10-22 13:22:00,58.0,33.0,-100.00,WNW,298,0.0,6.0,38,0.00,,,0.00,644.000000,,2013-10-22 19:22:00,
2013-10-22 13:32:00,58.0,33.0,-100.00,WNW,298,0.0,6.0,38,0.00,,,0.00,644.000000,,2013-10-22 19:32:00,
2013-10-22 13:42:00,58.0,33.0,-100.00,WNW,298,0.0,6.0,38,0.00,,,0.00,644.000000,,2013-10-22 19:42:00,
2013-10-22 13:52:00,58.0,33.0,-100.00,WNW,298,0.0,6.0,38,0.00,,,0.00,644.000000,,2013-10-22 19:52:00,
2013-10-22 14:02:00,58.0,33.0,-100.00,WNW,298,0.0,6.0,38,0.00,,,0.00,644.000000,,2013-10-22 20:02:00,
2013-10-22 14:22:00,61.0,33.0,-100.00,NE,44,1.0,6.0,35,0.00,,,0.00,662.000000,,2013-10-22 20:22:00,
2013-10-22 14:32:00,61.0,33.0,-100.00,NE,44,1.0,6.0,35,0.00,,,0.00,662.000000,,2013-10-22 20:32:00,
2013-10-22 14:43:00,61.0,33.0,-100.00,NE,44,1.0,6.0,35,0.00,,,0.00,662.000000,,2013-10-22 20:43:00,
2013-10-22 14:52:00,61.0,33.0,-100.00,NE,44,1.0,6.0,35,0.00,,,0.00,662.000000,,2013-10-22 20:52:00,
2013-10-22 15:02:00,61.0,33.0,-100.00,NE,44,1.0,6.0,35,0.00,,,0.00,662.000000,,2013-10-22 21:02:00,
2013-10-22 15:03:00,64.0,32.0,-100.00,NE,35,1.0,8.0,30,0.00,,,0.00,614.000000,,2013-10-22 21:03:00,
2013-10-22 15:44:00,64.0,32.0,-100.00,NE,35,1.0,8.0,30,0.00,,,0.00,614.000000,,2013-10-22 21:44:00,
2013-10-22 15:54:00,64.0,32.0,-100.00,NE,35,1.0,8.0,30,0.00,,,0.00,614.000000,,2013-10-22 21:54:00,
2013-10-22 16:03:00,64.0,29.0,-100.00,North,5,1.0,9.0,27,0.00,,,0.00,379.000000,,2013-10-22 22:03:00,
2013-10-22 16:44:00,64.0,29.0,-100.00,North,5,1.0,9.0,27,0.00,,,0.00,379.000000,,2013-10-22 22:44:00,
2013-10-22 16:54:00,64.0,29.0,-100.00,North,5,1.0,9.0,27,0.00,,,0.00,379.000000,,2013-10-22 22:54:00,
2013-10-22 17:43:00,62.0,29.0,-100.00,ENE,58,2.0,7.0,28,0.00,,,0.00,33.000000,,2013-10-22 23:43:00,
2013-10-22 17:53:00,62.0,29.0,-100.00,ENE,58,2.0,7.0,28,0.00,,,0.00,33.000000,,2013-10-22 23:53:00,
2013-10-22 18:02:00,62.0,29.0,-100.00,ENE,58,2.0,7.0,28,0.00,,,0.00,33.000000,,2013-10-23 00:02:00,
2013-10-22 18:42:00,54.0,28.0,-100.00,SW,224,5.0,6.0,36,0.00,,,0.00,39.000000,,2013-10-23 00:42:00,
2013-10-22 18:52:00,54.0,28.0,-100.00,SW,224,5.0,6.0,36,0.00,,,0.00,39.000000,,2013-10-23 00:52:00,
2013-10-22 19:02:00,54.0,28.0,-100.00,SW,224,5.0,6.0,36,0.00,,,0.00,39.000000,,2013-10-23 01:02:00,
2013-10-22 19:42:00,48.0,27.0,-100.00,WSW,251,4.0,9.0,43,0.00,,,0.00,5.000000,,2013-10-23 01:42:00,
2013-10-22 19:52:00,48.0,27.0,-100.00,WSW,251,4.0,9.0,43,0.00,,,0.00,5.000000,,2013-10-23 01:52:00,
2013-10-22 20:02:00,48.0,27.0,-100.00,WSW,251,4.0,9.0,43,0.00,,,0.00,5.000000,,2013-10-23 02:02:00,
2013-10-22 20:22:00,46.0,24.0,-100.00,West,268,5.0,12.0,42,0.00,,,0.00,0.000000,,2013-10-23 02:22:00,
2013-10-22 20:32:00,46.0,24.0,-100.00,West,268,5.0,12.0,42,0.00,,,0.00,0.000000,,2013-10-23 02:32:00,
2013-10-22 20:42:00,46.0,24.0,-100.00,West,268,5.0,12.0,42,0.00,,,0.00,0.000000,,2013-10-23 02:42:00,
2013-10-22 20:53:00,46.0,24.0,-100.00,West,268,5.0,12.0,42,0.00,,,0.00,0.000000,,2013-10-23 02:53:00,
2013-10-22 21:02:00,46.0,24.0,-100.00,West,268,5.0,12.0,42,0.00,,,0.00,0.000000,,2013-10-23 03:02:00,
2013-10-22 21:03:00,46.0,24.0,-100.00,WSW,244,3.0,12.0,42,0.00,,,0.00,0.000000,,2013-10-23 03:03:00,
2013-10-22 21:44:00,46.0,24.0,-100.00,WSW,244,3.0,12.0,42,0.00,,,0.00,0.000000,,2013-10-23 03:44:00,
2013-10-22 21:55:00,46.0,24.0,-100.00,WSW,244,3.0,12.0,42,0.00,,,0.00,0.000000,,2013-10-23 03:55:00,
2013-10-22 22:03:00,42.0,24.0,-100.00,SW,227,4.0,10.0,48,0.00,,,0.00,0.000000,,2013-10-23 04:03:00,
2013-10-22 22:45:00,42.0,24.0,-100.00,SW,227,4.0,10.0,48,0.00,,,0.00,0.000000,,2013-10-23 04:45:00,
2013-10-22 22:54:00,42.0,24.0,-100.00,SW,227,4.0,10.0,48,0.00,,,0.00,0.000000,,2013-10-23 04:54:00,
2013-10-22 23:43:00,43.0,25.0,-100.00,SW,228,4.0,9.0,48,0.00,,,0.00,0.000000,,2013-10-23 05:43:00,
2013-10-22 23:52:00,43.0,25.0,-100.00,SW,228,4.0,9.0,48,0.00,,,0.00,0.000000,,2013-10-23 05:52:00,